King Ferry, NY

6:28 PM EDT on July 04, 2015 (GMT -0400)
Fessenden Farms | | Change Station
CLOSE
Current Station
Personal Weather Station
Location: King Ferry, NY
Elevation: 925 ft
Nearby Weather Stations

Elev 925 ft 42.67 °N, 76.62 °W | Updated 13 minutes ago

Partly Cloudy
Partly Cloudy
72.8 °F
Feels Like 75 °F
N
0.0
Wind Variable Wind from South
Gusts 5.0 mph

Today
High -- | Low -- °F
--% Chance of Precip.
Yesterday
High -- | Low -- °F
Precip. -- in
5:33 AM 8:47 PM
Waning Gibbous, 90% visible
Pressure 29.96 in
Visibility 10.0 miles
Clouds Scattered Clouds 3300 ft
Heat Index 75 °F
Dew Point 63 °F
Humidity 72%
Rainfall 0.00 in
Snow Depth Not available.
UV 2 out of 12
Pollen .80 out of 12
Air Quality Not available.
Flu Activity Not available.
METAR KITH 042156Z 16007KT 10SM SCT033 22/16 A2997 RMK AO2 T02160161 SLP146

More Conditions Fewer Conditions

Pressure 29.96 in
Visibility 10.0 miles
Clouds Scattered Clouds 3300 ft
Heat Index 75 °F
Dew Point 63 °F
Humidity 72%
Rainfall 0.00 in
Snow Depth Not available.
UV 2 out of 12
Pollen .80 out of 12
Air Quality Not available.
Flu Activity Not available.
METAR KITH 042156Z 16007KT 10SM SCT033 22/16 A2997 RMK AO2 T02160161 SLP146

More Conditions Fewer Conditions

10-Day Weather Forecast

×

Almanac

Astronomy

Jul. 04, 2015 Rise Set
Actual Time
Civil Twilight
Nautical Twilight
Astronomical Twilight
Moon
Length of Visible Light
Length of Day
Tomorrow will be .
, % of the Moon is Illuminated

Today's Extremes

State Highs State Lows

Community

WunderPhotos

Upload Photos

1,835,105 photos uploaded!

WunderBlogs® & News

Nearby

Air Quality

  Air Quality AQ Index Pollutant
Not available.

Snow Depth

Station Depth Elevation

Earthquake Activity

City Distance Mag. Time & Date
Minimum magnitude displayed is 2.5.

Coastal Water Temperatures

Place Temperature

Stations

Nearby Weather Stations

Station Location Temp. Windchill Dew Point Humidity Wind Precip. Elev Updated Type